Cedaredge, Colorado
Current Conditions -  °F | °C
As of 8:55 AM on Friday 24 Oct 2014 (Local Time) from KAJZ Reporting Station
Clear Clear  
Wind Chill: 47°   Ceiling: Unl
Heat Index: 47°   Visibility: 10mi
Dew Point: 35°   Wind: 0mph
Humidity: 62%   Direction: NA
Pressure: 30.36"   Gusts: NA
Location:  38.9°N, 107.93°W
Report Text: KAJZ 241455Z AUTO 00000KT 10SM CLR 08/01 A3036 RMK AO2 T00830014
Loading
Personal Weather Stations






























Interactive Weather Map
Tropical Storm Tracking
New forecast layout! Learn more

10-Day Weather Forecast

Advertisements
Track Severe Weather on mobile